sensor_id;sensor_type;location;lat;lon;timestamp;pressure;altitude;pressure_sealevel;temperature;humidity
5053;BME280;2545;50.892;5.740;2023-04-08T00:00:00;56249.34;;;-142.21;100.00
5053;BME280;2545;50.892;5.740;2023-04-08T00:02:25;56204.25;;;-142.21;100.00
5053;BME280;2545;50.892;5.740;2023-04-08T00:04:51;56263.06;;;-142.21;100.00
5053;BME280;2545;50.892;5.740;2023-04-08T00:07:16;56216.00;;;-142.21;100.00
5053;BME280;2545;50.892;5.740;2023-04-08T00:09:41;56249.34;;;-142.21;100.00
5053;BME280;2545;50.892;5.740;2023-04-08T00:12:07;56239.56;;;-142.21;100.00
5053;BME280;2545;50.892;5.740;2023-04-08T00:14:32;56231.72;;;-142.21;100.00
5053;BME280;2545;50.892;5.740;2023-04-08T00:16:57;56245.44;;;-142.21;100.00
5053;BME280;2545;50.892;5.740;2023-04-08T00:19:23;56257.19;;;-142.21;100.00
5053;BME280;2545;50.892;5.740;2023-04-08T00:21:49;56227.78;;;-142.21;100.00
5053;BME280;2545;50.892;5.740;2023-04-08T00:24:15;56267.00;;;-142.21;100.00
5053;BME280;2545;50.892;5.740;2023-04-08T00:26:40;56241.50;;;-142.21;100.00
5053;BME280;2545;50.892;5.740;2023-04-08T00:29:06;56282.69;;;-142.21;100.00
5053;BME280;2545;50.892;5.740;2023-04-08T00:31:31;56247.38;;;-142.21;100.00
5053;BME280;2545;50.892;5.740;2023-04-08T00:33:56;56241.50;;;-142.21;100.00
5053;BME280;2545;50.892;5.740;2023-04-08T00:36:22;56268.97;;;-142.21;100.00
5053;BME280;2545;50.892;5.740;2023-04-08T00:38:47;56233.66;;;-142.21;100.00
5053;BME280;2545;50.892;5.740;2023-04-08T00:41:12;56265.03;;;-142.21;100.00
5053;BME280;2545;50.892;5.740;2023-04-08T00:43:38;56186.59;;;-142.21;100.00
5053;BME280;2545;50.892;5.740;2023-04-08T00:46:04;56292.50;;;-142.21;100.00
5053;BME280;2545;50.892;5.740;2023-04-08T00:48:30;56255.22;;;-142.21;100.00
5053;BME280;2545;50.892;5.740;2023-04-08T00:50:56;56245.44;;;-142.21;100.00
5053;BME280;2545;50.892;5.740;2023-04-08T00:53:22;56225.81;;;-142.21;100.00
5053;BME280;2545;50.892;5.740;2023-04-08T00:55:47;56219.94;;;-142.21;100.00
5053;BME280;2545;50.892;5.740;2023-04-08T00:58:13;56249.34;;;-142.21;100.00
5053;BME280;2545;50.892;5.740;2023-04-08T01:00:42;56225.81;;;-142.21;100.00
5053;BME280;2545;50.892;5.740;2023-04-08T01:03:16;56235.63;;;-142.21;100.00
5053;BME280;2545;50.892;5.740;2023-04-08T01:06:06;56229.75;;;-142.21;100.00
5053;BME280;2545;50.892;5.740;2023-04-08T01:08:28;56210.13;;;-142.21;100.00
5053;BME280;2545;50.892;5.740;2023-04-08T01:10:58;56272.88;;;-142.21;100.00
5053;BME280;2545;50.892;5.740;2023-04-08T01:13:29;56194.44;;;-142.21;100.00
5053;BME280;2545;50.892;5.740;2023-04-08T01:15:55;56267.00;;;-142.21;100.00
5053;BME280;2545;50.892;5.740;2023-04-08T01:18:21;56245.44;;;-142.21;100.00
5053;BME280;2545;50.892;5.740;2023-04-08T01:20:48;56249.34;;;-142.21;100.00
5053;BME280;2545;50.892;5.740;2023-04-08T01:23:52;56219.94;;;-142.21;100.00
5053;BME280;2545;50.892;5.740;2023-04-08T01:26:23;56241.50;;;-142.21;100.00
5053;BME280;2545;50.892;5.740;2023-04-08T01:28:52;56229.75;;;-142.21;100.00
5053;BME280;2545;50.892;5.740;2023-04-08T01:31:18;56247.38;;;-142.21;100.00
5053;BME280;2545;50.892;5.740;2023-04-08T01:33:45;56237.59;;;-142.21;100.00
5053;BME280;2545;50.892;5.740;2023-04-08T01:36:13;56263.06;;;-142.21;100.00
5053;BME280;2545;50.892;5.740;2023-04-08T01:38:38;56241.50;;;-142.21;100.00
5053;BME280;2545;50.892;5.740;2023-04-08T01:41:04;56225.81;;;-142.21;100.00
5053;BME280;2545;50.892;5.740;2023-04-08T01:43:32;56208.16;;;-142.21;100.00
5053;BME280;2545;50.892;5.740;2023-04-08T01:45:59;56249.34;;;-142.21;100.00
5053;BME280;2545;50.892;5.740;2023-04-08T01:48:26;56253.28;;;-142.21;100.00
5053;BME280;2545;50.892;5.740;2023-04-08T01:50:53;56280.72;;;-142.21;100.00
5053;BME280;2545;50.892;5.740;2023-04-08T01:53:20;56219.94;;;-142.21;100.00
5053;BME280;2545;50.892;5.740;2023-04-08T01:55:48;56233.66;;;-142.21;100.00
5053;BME280;2545;50.892;5.740;2023-04-08T01:58:19;56253.28;;;-142.21;100.00
5053;BME280;2545;50.892;5.740;2023-04-08T02:00:45;56216.00;;;-142.21;100.00
5053;BME280;2545;50.892;5.740;2023-04-08T02:03:11;56257.19;;;-142.21;100.00
5053;BME280;2545;50.892;5.740;2023-04-08T02:05:38;56198.38;;;-142.21;100.00
5053;BME280;2545;50.892;5.740;2023-04-08T02:08:03;56257.19;;;-142.21;100.00
5053;BME280;2545;50.892;5.740;2023-04-08T02:10:29;56223.84;;;-142.21;100.00
5053;BME280;2545;50.892;5.740;2023-04-08T02:12:55;56235.63;;;-142.21;100.00
5053;BME280;2545;50.892;5.740;2023-04-08T02:15:21;56247.38;;;-142.21;100.00
5053;BME280;2545;50.892;5.740;2023-04-08T02:17:49;56241.50;;;-142.21;100.00
5053;BME280;2545;50.892;5.740;2023-04-08T02:20:16;56217.97;;;-142.21;100.00
5053;BME280;2545;50.892;5.740;2023-04-08T02:22:48;56265.03;;;-142.21;100.00
5053;BME280;2545;50.892;5.740;2023-04-08T02:25:16;56237.59;;;-142.21;100.00
5053;BME280;2545;50.892;5.740;2023-04-08T02:27:45;56217.97;;;-142.21;100.00
5053;BME280;2545;50.892;5.740;2023-04-08T02:30:14;56267.00;;;-142.21;100.00
5053;BME280;2545;50.892;5.740;2023-04-08T02:32:40;56235.63;;;-142.21;100.00
5053;BME280;2545;50.892;5.740;2023-04-08T02:35:08;56237.59;;;-142.21;100.00
5053;BME280;2545;50.892;5.740;2023-04-08T02:37:33;56263.06;;;-142.21;100.00
5053;BME280;2545;50.892;5.740;2023-04-08T02:39:59;56255.22;;;-142.21;100.00
5053;BME280;2545;50.892;5.740;2023-04-08T02:42:24;56255.22;;;-142.21;100.00
5053;BME280;2545;50.892;5.740;2023-04-08T02:44:50;56268.97;;;-142.21;100.00
5053;BME280;2545;50.892;5.740;2023-04-08T02:47:15;56231.72;;;-142.21;100.00
5053;BME280;2545;50.892;5.740;2023-04-08T02:49:41;56212.09;;;-142.21;100.00
5053;BME280;2545;50.892;5.740;2023-04-08T02:52:06;56245.44;;;-142.21;100.00
5053;BME280;2545;50.892;5.740;2023-04-08T02:54:31;56253.28;;;-142.21;100.00
5053;BME280;2545;50.892;5.740;2023-04-08T02:56:57;56221.91;;;-142.21;100.00
5053;BME280;2545;50.892;5.740;2023-04-08T02:59:22;56225.81;;;-142.21;100.00
5053;BME280;2545;50.892;5.740;2023-04-08T03:01:47;56241.50;;;-142.21;100.00
5053;BME280;2545;50.892;5.740;2023-04-08T03:04:13;56241.50;;;-142.21;100.00
5053;BME280;2545;50.892;5.740;2023-04-08T03:06:38;56241.50;;;-142.21;100.00
5053;BME280;2545;50.892;5.740;2023-04-08T03:09:04;56253.28;;;-142.21;100.00
5053;BME280;2545;50.892;5.740;2023-04-08T03:11:32;56261.13;;;-142.21;100.00
5053;BME280;2545;50.892;5.740;2023-04-08T03:13:57;56243.47;;;-142.21;100.00
5053;BME280;2545;50.892;5.740;2023-04-08T03:16:22;56257.19;;;-142.21;100.00
5053;BME280;2545;50.892;5.740;2023-04-08T03:18:51;56294.47;;;-142.21;100.00
5053;BME280;2545;50.892;5.740;2023-04-08T03:21:16;56241.50;;;-142.21;100.00
5053;BME280;2545;50.892;5.740;2023-04-08T03:23:42;56261.13;;;-142.21;100.00
5053;BME280;2545;50.892;5.740;2023-04-08T03:26:07;56257.19;;;-142.21;100.00
5053;BME280;2545;50.892;5.740;2023-04-08T03:28:33;56245.44;;;-142.21;100.00
5053;BME280;2545;50.892;5.740;2023-04-08T03:30:58;56253.28;;;-142.21;100.00
5053;BME280;2545;50.892;5.740;2023-04-08T03:33:26;56265.03;;;-142.21;100.00
5053;BME280;2545;50.892;5.740;2023-04-08T03:35:52;56217.97;;;-142.21;100.00
5053;BME280;2545;50.892;5.740;2023-04-08T03:38:18;56245.44;;;-142.21;100.00
5053;BME280;2545;50.892;5.740;2023-04-08T03:40:43;56239.56;;;-142.21;100.00
5053;BME280;2545;50.892;5.740;2023-04-08T03:43:08;56270.91;;;-142.21;100.00
5053;BME280;2545;50.892;5.740;2023-04-08T03:45:35;56268.97;;;-142.21;100.00
5053;BME280;2545;50.892;5.740;2023-04-08T03:48:01;56261.13;;;-142.21;100.00
5053;BME280;2545;50.892;5.740;2023-04-08T03:50:26;56255.22;;;-142.21;100.00
5053;BME280;2545;50.892;5.740;2023-04-08T03:52:52;56243.47;;;-142.21;100.00
5053;BME280;2545;50.892;5.740;2023-04-08T03:55:17;56219.94;;;-142.21;100.00
5053;BME280;2545;50.892;5.740;2023-04-08T03:57:43;56253.28;;;-142.21;100.00
5053;BME280;2545;50.892;5.740;2023-04-08T04:00:09;56276.81;;;-142.21;100.00
5053;BME280;2545;50.892;5.740;2023-04-08T04:02:35;56261.13;;;-142.21;100.00
5053;BME280;2545;50.892;5.740;2023-04-08T04:05:00;56259.16;;;-142.21;100.00
5053;BME280;2545;50.892;5.740;2023-04-08T04:07:25;56243.47;;;-142.21;100.00
5053;BME280;2545;50.892;5.740;2023-04-08T04:09:50;56216.00;;;-142.21;100.00
5053;BME280;2545;50.892;5.740;2023-04-08T04:12:18;56233.66;;;-142.21;100.00
5053;BME280;2545;50.892;5.740;2023-04-08T04:14:43;56302.28;;;-142.21;100.00
5053;BME280;2545;50.892;5.740;2023-04-08T04:17:09;56265.03;;;-142.21;100.00
5053;BME280;2545;50.892;5.740;2023-04-08T04:19:34;56251.31;;;-142.21;100.00
5053;BME280;2545;50.892;5.740;2023-04-08T04:21:59;56268.97;;;-142.21;100.00
5053;BME280;2545;50.892;5.740;2023-04-08T04:24:24;56251.31;;;-142.21;100.00
5053;BME280;2545;50.892;5.740;2023-04-08T04:26:50;56276.81;;;-142.21;100.00
5053;BME280;2545;50.892;5.740;2023-04-08T04:29:15;56233.66;;;-142.21;100.00
5053;BME280;2545;50.892;5.740;2023-04-08T04:31:40;56263.06;;;-142.21;100.00
5053;BME280;2545;50.892;5.740;2023-04-08T04:34:06;56270.91;;;-142.21;100.00
5053;BME280;2545;50.892;5.740;2023-04-08T04:36:31;56247.38;;;-142.21;100.00
5053;BME280;2545;50.892;5.740;2023-04-08T04:38:56;56270.91;;;-142.21;100.00
5053;BME280;2545;50.892;5.740;2023-04-08T04:41:22;56237.59;;;-142.21;100.00
5053;BME280;2545;50.892;5.740;2023-04-08T04:43:47;56261.13;;;-142.21;100.00
5053;BME280;2545;50.892;5.740;2023-04-08T04:46:12;56206.22;;;-142.21;100.00
5053;BME280;2545;50.892;5.740;2023-04-08T04:48:38;56239.56;;;-142.21;100.00
5053;BME280;2545;50.892;5.740;2023-04-08T04:51:03;56245.44;;;-142.21;100.00
5053;BME280;2545;50.892;5.740;2023-04-08T04:53:30;56233.66;;;-142.21;100.00
5053;BME280;2545;50.892;5.740;2023-04-08T04:55:55;56267.00;;;-142.21;100.00
5053;BME280;2545;50.892;5.740;2023-04-08T04:58:21;56217.97;;;-142.21;100.00
5053;BME280;2545;50.892;5.740;2023-04-08T05:00:46;56223.84;;;-142.21;100.00
5053;BME280;2545;50.892;5.740;2023-04-08T05:03:12;56257.19;;;-142.21;100.00
5053;BME280;2545;50.892;5.740;2023-04-08T05:05:37;56268.97;;;-142.21;100.00
5053;BME280;2545;50.892;5.740;2023-04-08T05:08:03;56314.06;;;-142.21;100.00
5053;BME280;2545;50.892;5.740;2023-04-08T05:10:28;56278.78;;;-142.21;100.00
5053;BME280;2545;50.892;5.740;2023-04-08T05:12:54;56272.88;;;-142.21;100.00
5053;BME280;2545;50.892;5.740;2023-04-08T05:15:20;56257.19;;;-142.21;100.00
5053;BME280;2545;50.892;5.740;2023-04-08T05:17:45;56212.09;;;-142.21;100.00
5053;BME280;2545;50.892;5.740;2023-04-08T05:20:10;56235.63;;;-142.21;100.00
5053;BME280;2545;50.892;5.740;2023-04-08T05:22:36;56267.00;;;-142.21;100.00
5053;BME280;2545;50.892;5.740;2023-04-08T05:25:01;56261.13;;;-142.21;100.00
5053;BME280;2545;50.892;5.740;2023-04-08T05:27:27;56288.56;;;-142.21;100.00
5053;BME280;2545;50.892;5.740;2023-04-08T05:29:52;56251.31;;;-142.21;100.00
5053;BME280;2545;50.892;5.740;2023-04-08T05:32:17;56263.06;;;-142.21;100.00
5053;BME280;2545;50.892;5.740;2023-04-08T05:34:43;56267.00;;;-142.21;100.00
5053;BME280;2545;50.892;5.740;2023-04-08T05:37:08;56231.72;;;-142.21;100.00
5053;BME280;2545;50.892;5.740;2023-04-08T05:39:34;56227.78;;;-142.21;100.00
5053;BME280;2545;50.892;5.740;2023-04-08T05:41:59;56235.63;;;-142.21;100.00
5053;BME280;2545;50.892;5.740;2023-04-08T05:44:24;56227.78;;;-142.21;100.00
5053;BME280;2545;50.892;5.740;2023-04-08T05:46:50;56257.19;;;-142.21;100.00
5053;BME280;2545;50.892;5.740;2023-04-08T05:49:15;56339.56;;;-142.21;100.00
5053;BME280;2545;50.892;5.740;2023-04-08T05:51:42;56225.81;;;-142.21;100.00
5053;BME280;2545;50.892;5.740;2023-04-08T05:54:07;56263.06;;;-142.21;100.00
5053;BME280;2545;50.892;5.740;2023-04-08T05:56:32;56253.28;;;-142.21;100.00
5053;BME280;2545;50.892;5.740;2023-04-08T05:58:58;56231.72;;;-142.21;100.00
5053;BME280;2545;50.892;5.740;2023-04-08T06:01:24;56241.50;;;-142.21;100.00
5053;BME280;2545;50.892;5.740;2023-04-08T06:03:50;56237.59;;;-142.21;100.00
5053;BME280;2545;50.892;5.740;2023-04-08T06:06:16;56231.72;;;-142.21;100.00
5053;BME280;2545;50.892;5.740;2023-04-08T06:08:42;56225.81;;;-142.21;100.00
5053;BME280;2545;50.892;5.740;2023-04-08T06:11:07;56280.72;;;-142.21;100.00
5053;BME280;2545;50.892;5.740;2023-04-08T06:13:32;56247.38;;;-142.21;100.00
5053;BME280;2545;50.892;5.740;2023-04-08T06:15:58;56300.34;;;-142.21;100.00
5053;BME280;2545;50.892;5.740;2023-04-08T06:18:23;56270.91;;;-142.21;100.00
5053;BME280;2545;50.892;5.740;2023-04-08T06:20:49;56255.22;;;-142.21;100.00
5053;BME280;2545;50.892;5.740;2023-04-08T06:23:15;56272.88;;;-142.21;100.00
5053;BME280;2545;50.892;5.740;2023-04-08T06:25:40;56225.81;;;-142.21;100.00
5053;BME280;2545;50.892;5.740;2023-04-08T06:28:06;56257.19;;;-142.21;100.00
5053;BME280;2545;50.892;5.740;2023-04-08T06:30:31;56288.56;;;-142.21;100.00
5053;BME280;2545;50.892;5.740;2023-04-08T06:32:56;56274.84;;;-142.21;100.00
5053;BME280;2545;50.892;5.740;2023-04-08T06:35:22;56255.22;;;-142.21;100.00
5053;BME280;2545;50.892;5.740;2023-04-08T06:37:47;56253.28;;;-142.21;100.00
5053;BME280;2545;50.892;5.740;2023-04-08T06:40:12;56235.63;;;-142.21;100.00
5053;BME280;2545;50.892;5.740;2023-04-08T06:42:38;56251.31;;;-142.21;100.00
5053;BME280;2545;50.892;5.740;2023-04-08T06:45:05;56255.22;;;-142.21;100.00
5053;BME280;2545;50.892;5.740;2023-04-08T06:47:30;56294.47;;;-142.21;100.00
5053;BME280;2545;50.892;5.740;2023-04-08T06:49:55;56243.47;;;-142.21;100.00
5053;BME280;2545;50.892;5.740;2023-04-08T06:52:21;56304.25;;;-142.21;100.00
5053;BME280;2545;50.892;5.740;2023-04-08T06:54:46;56290.53;;;-142.21;100.00
5053;BME280;2545;50.892;5.740;2023-04-08T06:57:11;56274.84;;;-142.21;100.00
5053;BME280;2545;50.892;5.740;2023-04-08T06:59:37;56253.28;;;-142.21;100.00
5053;BME280;2545;50.892;5.740;2023-04-08T07:02:02;56268.97;;;-142.21;100.00
5053;BME280;2545;50.892;5.740;2023-04-08T07:04:28;56249.34;;;-142.21;100.00
5053;BME280;2545;50.892;5.740;2023-04-08T07:06:53;56255.22;;;-142.21;100.00
5053;BME280;2545;50.892;5.740;2023-04-08T07:09:18;56257.19;;;-142.21;100.00
5053;BME280;2545;50.892;5.740;2023-04-08T07:11:44;56239.56;;;-142.21;100.00
5053;BME280;2545;50.892;5.740;2023-04-08T07:14:10;56237.59;;;-142.21;100.00
5053;BME280;2545;50.892;5.740;2023-04-08T07:16:36;56229.75;;;-142.21;100.00
5053;BME280;2545;50.892;5.740;2023-04-08T07:19:01;56255.22;;;-142.21;100.00
5053;BME280;2545;50.892;5.740;2023-04-08T07:21:26;56231.72;;;-142.21;100.00
5053;BME280;2545;50.892;5.740;2023-04-08T07:23:52;56276.81;;;-142.21;100.00
5053;BME280;2545;50.892;5.740;2023-04-08T07:26:17;56255.22;;;-142.21;100.00
5053;BME280;2545;50.892;5.740;2023-04-08T07:28:43;56229.75;;;-142.21;100.00
5053;BME280;2545;50.892;5.740;2023-04-08T07:31:10;56241.50;;;-142.21;100.00
5053;BME280;2545;50.892;5.740;2023-04-08T07:33:35;56247.38;;;-142.21;100.00
5053;BME280;2545;50.892;5.740;2023-04-08T07:36:01;56225.81;;;-142.21;100.00
5053;BME280;2545;50.892;5.740;2023-04-08T07:38:26;56288.56;;;-142.21;100.00
5053;BME280;2545;50.892;5.740;2023-04-08T07:40:52;56268.97;;;-142.21;100.00
5053;BME280;2545;50.892;5.740;2023-04-08T07:43:17;56243.47;;;-142.21;100.00
5053;BME280;2545;50.892;5.740;2023-04-08T07:45:43;56216.00;;;-142.21;100.00
5053;BME280;2545;50.892;5.740;2023-04-08T07:48:08;56225.81;;;-142.21;100.00
5053;BME280;2545;50.892;5.740;2023-04-08T07:50:35;56212.09;;;-142.21;100.00
5053;BME280;2545;50.892;5.740;2023-04-08T07:53:01;56247.38;;;-142.21;100.00
5053;BME280;2545;50.892;5.740;2023-04-08T07:55:26;56217.97;;;-142.21;99.92
5053;BME280;2545;50.892;5.740;2023-04-08T07:57:51;56235.63;;;-142.21;97.33
5053;BME280;2545;50.892;5.740;2023-04-08T08:00:17;56225.81;;;-142.21;91.73
5053;BME280;2545;50.892;5.740;2023-04-08T08:02:46;56245.44;;;-142.21;93.75
5053;BME280;2545;50.892;5.740;2023-04-08T08:05:12;56221.91;;;-142.21;94.57
5053;BME280;2545;50.892;5.740;2023-04-08T08:07:37;56239.56;;;-142.21;94.38
5053;BME280;2545;50.892;5.740;2023-04-08T08:10:03;56237.59;;;-142.21;93.65
5053;BME280;2545;50.892;5.740;2023-04-08T08:12:28;56208.16;;;-142.21;91.72
5053;BME280;2545;50.892;5.740;2023-04-08T08:14:54;56225.81;;;-142.21;90.69
5053;BME280;2545;50.892;5.740;2023-04-08T08:17:23;56243.47;;;-142.21;89.63
5053;BME280;2545;50.892;5.740;2023-04-08T08:19:49;56263.06;;;-142.21;87.80
5053;BME280;2545;50.892;5.740;2023-04-08T08:22:14;56237.59;;;-142.21;87.84
5053;BME280;2545;50.892;5.740;2023-04-08T08:24:40;56227.78;;;-142.21;86.52
5053;BME280;2545;50.892;5.740;2023-04-08T08:27:05;56245.44;;;-142.21;86.33
5053;BME280;2545;50.892;5.740;2023-04-08T08:29:31;56225.81;;;-142.21;87.54
5053;BME280;2545;50.892;5.740;2023-04-08T08:31:56;56237.59;;;-142.21;87.98
5053;BME280;2545;50.892;5.740;2023-04-08T08:34:22;56212.09;;;-142.21;88.93
5053;BME280;2545;50.892;5.740;2023-04-08T08:36:47;56235.63;;;-142.21;88.39
5053;BME280;2545;50.892;5.740;2023-04-08T08:39:13;56251.31;;;-142.21;87.61
5053;BME280;2545;50.892;5.740;2023-04-08T08:41:38;56221.91;;;-142.21;87.12
5053;BME280;2545;50.892;5.740;2023-04-08T08:44:05;56235.63;;;-142.21;84.10
5053;BME280;2545;50.892;5.740;2023-04-08T08:46:31;56241.50;;;-142.21;81.54
5053;BME280;2545;50.892;5.740;2023-04-08T08:48:57;56239.56;;;-142.21;78.96
5053;BME280;2545;50.892;5.740;2023-04-08T08:51:23;56225.81;;;-142.21;77.83
5053;BME280;2545;50.892;5.740;2023-04-08T08:53:48;56249.34;;;-142.21;76.90
5053;BME280;2545;50.892;5.740;2023-04-08T08:56:13;56235.63;;;-142.21;75.96
5053;BME280;2545;50.892;5.740;2023-04-08T08:58:39;56217.97;;;-142.21;77.66
5053;BME280;2545;50.892;5.740;2023-04-08T09:01:32;56214.06;;;-142.21;77.97
5053;BME280;2545;50.892;5.740;2023-04-08T09:04:17;56245.44;;;-142.21;77.54
5053;BME280;2545;50.892;5.740;2023-04-08T09:06:48;56229.75;;;-142.21;76.74
5053;BME280;2545;50.892;5.740;2023-04-08T09:09:15;56216.00;;;-142.21;78.22
5053;BME280;2545;50.892;5.740;2023-04-08T09:11:45;56237.59;;;-142.21;77.95
5053;BME280;2545;50.892;5.740;2023-04-08T09:16:43;56217.97;;;-142.21;75.16
5053;BME280;2545;50.892;5.740;2023-04-08T09:19:09;56225.81;;;-142.21;73.79
5053;BME280;2545;50.892;5.740;2023-04-08T09:21:35;56217.97;;;-142.21;73.23
5053;BME280;2545;50.892;5.740;2023-04-08T09:24:01;56216.00;;;-142.21;72.49
5053;BME280;2545;50.892;5.740;2023-04-08T09:26:26;56239.56;;;-142.21;71.11
5053;BME280;2545;50.892;5.740;2023-04-08T09:31:27;56192.50;;;-142.21;68.42
5053;BME280;2545;50.892;5.740;2023-04-08T09:33:55;56229.75;;;-142.21;68.61
5053;BME280;2545;50.892;5.740;2023-04-08T09:36:21;56241.50;;;-142.21;67.25
5053;BME280;2545;50.892;5.740;2023-04-08T09:38:47;56225.81;;;-142.21;64.95
5053;BME280;2545;50.892;5.740;2023-04-08T09:41:14;56194.44;;;-142.21;64.75
5053;BME280;2545;50.892;5.740;2023-04-08T09:43:47;56182.69;;;-142.21;63.33
5053;BME280;2545;50.892;5.740;2023-04-08T09:46:15;56202.28;;;-142.21;63.45
5053;BME280;2545;50.892;5.740;2023-04-08T09:49:32;56208.16;;;-142.21;65.73
5053;BME280;2545;50.892;5.740;2023-04-08T09:52:14;56219.94;;;-142.21;64.16
5053;BME280;2545;50.892;5.740;2023-04-08T09:55:01;56200.34;;;-142.21;62.01
5053;BME280;2545;50.892;5.740;2023-04-08T09:57:40;56243.47;;;-142.21;61.49
5053;BME280;2545;50.892;5.740;2023-04-08T10:00:10;56219.94;;;-142.21;62.37
5053;BME280;2545;50.892;5.740;2023-04-08T10:05:35;56194.44;;;-142.21;62.46
5053;BME280;2545;50.892;5.740;2023-04-08T10:08:02;56251.31;;;-142.21;63.22
5053;BME280;2545;50.892;5.740;2023-04-08T10:10:27;56208.16;;;-142.21;63.31
5053;BME280;2545;50.892;5.740;2023-04-08T10:12:53;56196.41;;;-142.21;61.93
5053;BME280;2545;50.892;5.740;2023-04-08T10:15:27;56221.91;;;-142.21;61.12
5053;BME280;2545;50.892;5.740;2023-04-08T10:17:55;56225.81;;;-142.21;59.45
5053;BME280;2545;50.892;5.740;2023-04-08T10:23:05;56190.53;;;-142.21;55.89
5053;BME280;2545;50.892;5.740;2023-04-08T10:25:35;56170.91;;;-142.21;49.17
5053;BME280;2545;50.892;5.740;2023-04-08T10:30:38;56186.59;;;-142.21;43.36
5053;BME280;2545;50.892;5.740;2023-04-08T10:33:11;56200.34;;;-142.21;43.75
5053;BME280;2545;50.892;5.740;2023-04-08T10:35:40;56161.13;;;-142.21;46.61
5053;BME280;2545;50.892;5.740;2023-04-08T10:38:06;56167.00;;;-142.21;50.67
5053;BME280;2545;50.892;5.740;2023-04-08T10:40:36;56192.50;;;-142.21;52.71
5053;BME280;2545;50.892;5.740;2023-04-08T10:43:03;56149.34;;;-142.21;52.14
5053;BME280;2545;50.892;5.740;2023-04-08T10:45:29;56168.97;;;-142.21;50.57
5053;BME280;2545;50.892;5.740;2023-04-08T10:47:55;56167.00;;;-142.21;51.39
5053;BME280;2545;50.892;5.740;2023-04-08T10:50:20;56184.66;;;-142.21;50.43
5053;BME280;2545;50.892;5.740;2023-04-08T10:52:51;56202.28;;;-142.21;48.21
5053;BME280;2545;50.892;5.740;2023-04-08T10:55:24;56178.75;;;-142.21;47.75
5053;BME280;2545;50.892;5.740;2023-04-08T10:57:51;56198.38;;;-142.21;48.62
5053;BME280;2545;50.892;5.740;2023-04-08T11:00:17;56168.97;;;-142.21;47.76
5053;BME280;2545;50.892;5.740;2023-04-08T11:02:43;56149.34;;;-142.21;45.89
5053;BME280;2545;50.892;5.740;2023-04-08T11:05:11;56094.44;;;-142.21;40.96
5053;BME280;2545;50.892;5.740;2023-04-08T11:07:42;56112.09;;;-142.21;38.59
5053;BME280;2545;50.892;5.740;2023-04-08T11:10:08;56114.06;;;-142.21;35.96
5053;BME280;2545;50.892;5.740;2023-04-08T11:12:34;56116.00;;;-142.21;35.78
5053;BME280;2545;50.892;5.740;2023-04-08T11:15:02;56119.94;;;-142.21;35.73
5053;BME280;2545;50.892;5.740;2023-04-08T11:17:28;56096.41;;;-142.21;36.15
5053;BME280;2545;50.892;5.740;2023-04-08T11:19:54;56116.00;;;-142.21;38.50
5053;BME280;2545;50.892;5.740;2023-04-08T11:22:19;56112.09;;;-142.21;37.04
5053;BME280;2545;50.892;5.740;2023-04-08T11:24:45;56110.13;;;-142.21;36.01
5053;BME280;2545;50.892;5.740;2023-04-08T11:27:11;56119.94;;;-142.21;37.83
5053;BME280;2545;50.892;5.740;2023-04-08T11:29:36;56135.63;;;-142.21;39.88
5053;BME280;2545;50.892;5.740;2023-04-08T11:32:02;56163.06;;;-142.21;41.94
5053;BME280;2545;50.892;5.740;2023-04-08T11:34:28;56159.16;;;-142.21;43.37
5053;BME280;2545;50.892;5.740;2023-04-08T11:36:55;56168.97;;;-142.21;43.04
5053;BME280;2545;50.892;5.740;2023-04-08T11:39:23;56155.22;;;-142.21;42.04
5053;BME280;2545;50.892;5.740;2023-04-08T11:41:50;56100.31;;;-142.21;39.89
5053;BME280;2545;50.892;5.740;2023-04-08T11:44:15;56161.13;;;-142.21;39.32
5053;BME280;2545;50.892;5.740;2023-04-08T11:46:51;56168.97;;;-142.21;39.00
5053;BME280;2545;50.892;5.740;2023-04-08T11:49:19;56147.38;;;-142.21;40.32
5053;BME280;2545;50.892;5.740;2023-04-08T11:51:57;56172.88;;;-142.21;41.10
5053;BME280;2545;50.892;5.740;2023-04-08T11:54:30;56139.53;;;-142.21;40.61
5053;BME280;2545;50.892;5.740;2023-04-08T11:56:56;56165.03;;;-142.21;40.81
5053;BME280;2545;50.892;5.740;2023-04-08T11:59:23;56153.28;;;-142.21;41.92
5053;BME280;2545;50.892;5.740;2023-04-08T12:01:48;56167.00;;;-142.21;40.60
5053;BME280;2545;50.892;5.740;2023-04-08T12:04:15;56153.28;;;-142.21;41.56
5053;BME280;2545;50.892;5.740;2023-04-08T12:06:40;56106.22;;;-142.21;41.46
5053;BME280;2545;50.892;5.740;2023-04-08T12:09:10;56127.78;;;-142.21;39.85
5053;BME280;2545;50.892;5.740;2023-04-08T12:11:36;56114.06;;;-142.21;39.46
5053;BME280;2545;50.892;5.740;2023-04-08T12:14:02;56127.78;;;-142.21;38.87
5053;BME280;2545;50.892;5.740;2023-04-08T12:16:27;56141.50;;;-142.21;39.70
5053;BME280;2545;50.892;5.740;2023-04-08T12:18:52;56125.81;;;-142.21;39.41
5053;BME280;2545;50.892;5.740;2023-04-08T12:21:17;56159.16;;;-142.21;40.03
5053;BME280;2545;50.892;5.740;2023-04-08T12:23:43;56141.50;;;-142.21;39.56
5053;BME280;2545;50.892;5.740;2023-04-08T12:26:08;56078.75;;;-142.21;39.45
5053;BME280;2545;50.892;5.740;2023-04-08T12:28:34;56151.31;;;-142.21;38.54
5053;BME280;2545;50.892;5.740;2023-04-08T12:31:00;56141.50;;;-142.21;38.48
5053;BME280;2545;50.892;5.740;2023-04-08T12:33:25;56088.56;;;-142.21;35.75
5053;BME280;2545;50.892;5.740;2023-04-08T12:35:51;56037.56;;;-142.21;32.94
5053;BME280;2545;50.892;5.740;2023-04-08T12:38:16;56068.94;;;-142.21;32.46
5053;BME280;2545;50.892;5.740;2023-04-08T12:40:42;56094.44;;;-142.21;32.55
5053;BME280;2545;50.892;5.740;2023-04-08T12:43:07;56076.78;;;-142.21;34.14
5053;BME280;2545;50.892;5.740;2023-04-08T12:45:32;56067.00;;;-142.21;36.29
5053;BME280;2545;50.892;5.740;2023-04-08T12:47:58;56145.44;;;-142.21;37.76
5053;BME280;2545;50.892;5.740;2023-04-08T12:50:23;56127.78;;;-142.21;37.91
5053;BME280;2545;50.892;5.740;2023-04-08T12:52:48;56123.84;;;-142.21;36.83
5053;BME280;2545;50.892;5.740;2023-04-08T12:55:14;56082.69;;;-142.21;34.59
5053;BME280;2545;50.892;5.740;2023-04-08T12:57:40;56067.00;;;-142.21;33.76
5053;BME280;2545;50.892;5.740;2023-04-08T13:00:06;56084.63;;;-142.21;35.55
5053;BME280;2545;50.892;5.740;2023-04-08T13:02:31;56137.59;;;-142.21;36.24